Aeroporto :
LOGIN :

Iscrizione | Disclaimer

   EN    FR    IT 

 










Sommario :    VFR   VFR Marginale   IFR   IFR Intensivo   IFR Molto Intensivo
Visibilità : 
Base nubi : 
>= 8 km
>= 3000ft
5 / 8 km
1000 / 3000 ft
1500m / 5 km
500 / 1000 ft
800 / 1500m
200 / 500 ft
< 800m
< 200 ft
Simboli :   Temporali  Nebbia  Neve Forte  Precipitazioni Forti  Vento > 20 kt
SIGMETs :   Varie  Temporali  Ghiacco  Turbolenza  Onda orograficha  Ceneri Vulcaniche






- Altitudine del aeroporto : 45 ft
- Codice IATA : CEG


EGNR - Hawarden Chester

ULTIMO METAR :
  • 261820Z 32008KT 290V350 9999 FEW032 16/10 Q1037

METARs OBSOLETI :
  • 261750Z 33010KT 9999 FEW032 17/09 Q1037
  • 261720Z 32012KT 9999 FEW030 17/10 Q1037
  • 261650Z 33012KT 9999 FEW030 18/10 Q1037
  • 261620Z 33011KT 310V010 9999 FEW028 18/11 Q1037
  • 261550Z 32012KT 9999 FEW024 18/12 Q1037

TAF TAF EGNR
Valido dal 26 a 15 ore il 26 a 19 ore UTC


261402Z 2615/2619 31006KT 9999 SCT020 BKN030



MetMap, La meteo Aeronautica in un colpo d'occhio ! - Copyright ORBIFLY Dicembre 2007 - Disclaimer

ORBIFLY MET'MAP TEAM :

Programmazione e sviluppo : Alexandra Zaïnal
Concezione : Baudouin d'Aumeries
Aiuto per la programmazione : Marc-Olivier Méhu
Supporto tecnico e logistico : Manuel Goepfert
Aiuto per la traduzione : Arnaldo La Scala

Contatto : metmap@orbifly.com




FONTI E CREDITI :

   NOAA